Arlington, TN

5:45 PM CST on March 02, 2015 (GMT -0600)
West Memphis Municipal | Change Station
CLOSE
Current Station
Airport
Location: West Memphis,
Elevation: 213 ft
Nearby Weather Stations
Active Advisory: Winter Storm Watch Active Notice: Public Information Statement

Elev 213 ft 35.14 °N, 90.23 °W | Updated 52 minutes ago

Overcast
Overcast
40 °F
Feels Like 34 °F
N
8
Wind Variable Wind from NE

Today
High -- | Low -- °F
--% Chance of Precip.
Yesterday
High -- | Low -- °F
Precip. -- in
6:27 AM 5:55 PM
Waxing Gibbous, 93% visible
Pressure 30.33 in
Visibility 10.0 miles
Clouds Overcast 2000 ft
Windchill 34 °F
Dew Point 35 °F
Humidity 83%
Rainfall 0.00 in
Snow Depth Not available.
UV 0 out of 12
Pollen 5.80 out of 12
Air Quality Not available.
Flu Activity Not available.
METAR KAWM 022253Z AUTO 04007KT 10SM OVC020 04/02 A3032 RMK AO2 SLP270 T00440017

More Conditions Fewer Conditions

Pressure 30.33 in
Visibility 10.0 miles
Clouds Overcast 2000 ft
Windchill 34 °F
Dew Point 35 °F
Humidity 83%
Rainfall 0.00 in
Snow Depth Not available.
UV 0 out of 12
Pollen 5.80 out of 12
Air Quality Not available.
Flu Activity Not available.
METAR KAWM 022253Z AUTO 04007KT 10SM OVC020 04/02 A3032 RMK AO2 SLP270 T00440017

More Conditions Fewer Conditions

10-Day Weather Forecast

Almanac

Astronomy

Mar. 02, 2015 Rise Set
Actual Time
Civil Twilight
Nautical Twilight
Astronomical Twilight
Moon
Length of Visible Light
Length of Day
Tomorrow will be .
, % of the Moon is Illuminated

Today's Extremes

State Highs State Lows

Community

WunderPhotos

Upload Photos

1,801,998 photos uploaded!

WunderBlogs® & News

Nearby

Air Quality

  Air Quality AQ Index Pollutant
Not available.

Snow Depth

Station Depth Elevation

Earthquake Activity

City Distance Mag. Time & Date
Minimum magnitude displayed is 2.5.

Coastal Water Temperatures

Place Temperature

Nearby Weather Stations

Winter Storm Watch
Statement as of 1:50 PM CST on March 02, 2015

... Winter Storm Watch remains in effect from Wednesday afternoon
through late Wednesday night...

* snow/sleet/ice accumulations... significant accumulations of
sleet and some snow are likely.

* Timing... 12 PM CST Wednesday to 6 am CST Thursday.

* Impacts... travel will likely become hazardous.

Precautionary/preparedness actions...

A Winter Storm Watch means there is a potential for significant
snow... sleet... or ice accumulations that may impact travel.
Continue to monitor the latest forecasts.



Jds/jlh